sensor_id;sensor_type;location;lat;lon;timestamp;P1;durP1;ratioP1;P2;durP2;ratioP2
7104;SDS011;3594;42.152;24.714;2023-03-09T00:01:34;8.23;;;4.47;;
7104;SDS011;3594;42.152;24.714;2023-03-09T00:04:13;6.93;;;4.40;;
7104;SDS011;3594;42.152;24.714;2023-03-09T00:06:56;9.17;;;4.03;;
7104;SDS011;3594;42.152;24.714;2023-03-09T00:09:24;7.87;;;4.53;;
7104;SDS011;3594;42.152;24.714;2023-03-09T00:11:51;6.90;;;4.40;;
7104;SDS011;3594;42.152;24.714;2023-03-09T00:14:17;8.07;;;4.60;;
7104;SDS011;3594;42.152;24.714;2023-03-09T00:16:46;4.87;;;3.57;;
7104;SDS011;3594;42.152;24.714;2023-03-09T00:19:12;7.07;;;4.33;;
7104;SDS011;3594;42.152;24.714;2023-03-09T00:21:37;5.73;;;3.77;;
7104;SDS011;3594;42.152;24.714;2023-03-09T00:24:08;9.90;;;3.63;;
7104;SDS011;3594;42.152;24.714;2023-03-09T00:26:48;5.53;;;3.83;;
7104;SDS011;3594;42.152;24.714;2023-03-09T00:29:15;5.97;;;4.33;;
7104;SDS011;3594;42.152;24.714;2023-03-09T00:31:40;5.77;;;3.67;;
7104;SDS011;3594;42.152;24.714;2023-03-09T00:34:07;6.57;;;3.73;;
7104;SDS011;3594;42.152;24.714;2023-03-09T00:36:33;6.37;;;4.00;;
7104;SDS011;3594;42.152;24.714;2023-03-09T00:38:59;6.33;;;2.90;;
7104;SDS011;3594;42.152;24.714;2023-03-09T00:41:26;6.00;;;3.17;;
7104;SDS011;3594;42.152;24.714;2023-03-09T00:43:54;8.73;;;3.80;;
7104;SDS011;3594;42.152;24.714;2023-03-09T00:46:19;7.10;;;4.40;;
7104;SDS011;3594;42.152;24.714;2023-03-09T00:48:45;6.13;;;2.97;;
7104;SDS011;3594;42.152;24.714;2023-03-09T00:51:10;5.77;;;3.30;;
7104;SDS011;3594;42.152;24.714;2023-03-09T00:53:36;4.67;;;3.00;;
7104;SDS011;3594;42.152;24.714;2023-03-09T00:56:03;4.97;;;3.10;;
7104;SDS011;3594;42.152;24.714;2023-03-09T00:58:31;6.03;;;3.20;;
7104;SDS011;3594;42.152;24.714;2023-03-09T01:00:57;4.23;;;2.67;;
7104;SDS011;3594;42.152;24.714;2023-03-09T01:03:22;4.23;;;2.87;;
7104;SDS011;3594;42.152;24.714;2023-03-09T01:05:48;4.87;;;2.97;;
7104;SDS011;3594;42.152;24.714;2023-03-09T01:08:14;7.63;;;3.27;;
7104;SDS011;3594;42.152;24.714;2023-03-09T01:10:40;2.90;;;2.63;;
7104;SDS011;3594;42.152;24.714;2023-03-09T01:13:06;5.17;;;2.83;;
7104;SDS011;3594;42.152;24.714;2023-03-09T01:15:32;5.43;;;3.07;;
7104;SDS011;3594;42.152;24.714;2023-03-09T01:17:57;5.13;;;3.23;;
7104;SDS011;3594;42.152;24.714;2023-03-09T01:20:23;4.63;;;3.03;;
7104;SDS011;3594;42.152;24.714;2023-03-09T01:22:48;4.23;;;3.03;;
7104;SDS011;3594;42.152;24.714;2023-03-09T01:25:14;3.43;;;2.80;;
7104;SDS011;3594;42.152;24.714;2023-03-09T01:27:39;3.57;;;2.43;;
7104;SDS011;3594;42.152;24.714;2023-03-09T01:30:05;3.47;;;2.27;;
7104;SDS011;3594;42.152;24.714;2023-03-09T01:32:31;3.80;;;2.57;;
7104;SDS011;3594;42.152;24.714;2023-03-09T01:34:57;4.40;;;2.60;;
7104;SDS011;3594;42.152;24.714;2023-03-09T01:37:22;4.57;;;3.03;;
7104;SDS011;3594;42.152;24.714;2023-03-09T01:39:49;3.53;;;2.47;;
7104;SDS011;3594;42.152;24.714;2023-03-09T01:42:14;3.50;;;2.73;;
7104;SDS011;3594;42.152;24.714;2023-03-09T01:44:40;3.17;;;2.40;;
7104;SDS011;3594;42.152;24.714;2023-03-09T01:47:05;4.37;;;2.13;;
7104;SDS011;3594;42.152;24.714;2023-03-09T01:52:07;3.23;;;2.33;;
7104;SDS011;3594;42.152;24.714;2023-03-09T01:54:42;3.73;;;2.90;;
7104;SDS011;3594;42.152;24.714;2023-03-09T01:57:18;4.10;;;2.10;;
7104;SDS011;3594;42.152;24.714;2023-03-09T01:59:50;2.03;;;1.93;;
7104;SDS011;3594;42.152;24.714;2023-03-09T02:02:18;4.17;;;2.90;;
7104;SDS011;3594;42.152;24.714;2023-03-09T02:04:47;4.37;;;2.60;;
7104;SDS011;3594;42.152;24.714;2023-03-09T02:07:18;4.33;;;2.67;;
7104;SDS011;3594;42.152;24.714;2023-03-09T02:09:57;2.70;;;2.07;;
7104;SDS011;3594;42.152;24.714;2023-03-09T02:12:29;2.10;;;1.90;;
7104;SDS011;3594;42.152;24.714;2023-03-09T02:14:55;2.30;;;2.10;;
7104;SDS011;3594;42.152;24.714;2023-03-09T02:17:21;2.67;;;2.13;;
7104;SDS011;3594;42.152;24.714;2023-03-09T02:22:19;1.97;;;1.70;;
7104;SDS011;3594;42.152;24.714;2023-03-09T02:24:51;2.33;;;2.03;;
7104;SDS011;3594;42.152;24.714;2023-03-09T02:27:30;2.03;;;1.73;;
7104;SDS011;3594;42.152;24.714;2023-03-09T02:29:57;2.57;;;1.97;;
7104;SDS011;3594;42.152;24.714;2023-03-09T02:32:23;2.47;;;1.90;;
7104;SDS011;3594;42.152;24.714;2023-03-09T02:34:48;2.20;;;1.87;;
7104;SDS011;3594;42.152;24.714;2023-03-09T02:37:25;2.10;;;1.70;;
7104;SDS011;3594;42.152;24.714;2023-03-09T02:39:54;2.23;;;2.03;;
7104;SDS011;3594;42.152;24.714;2023-03-09T02:42:22;1.80;;;1.70;;
7104;SDS011;3594;42.152;24.714;2023-03-09T02:44:49;1.90;;;1.80;;
7104;SDS011;3594;42.152;24.714;2023-03-09T02:47:19;2.13;;;1.73;;
7104;SDS011;3594;42.152;24.714;2023-03-09T02:49:47;3.10;;;2.73;;
7104;SDS011;3594;42.152;24.714;2023-03-09T02:52:12;2.33;;;2.03;;
7104;SDS011;3594;42.152;24.714;2023-03-09T02:54:38;3.10;;;2.40;;
7104;SDS011;3594;42.152;24.714;2023-03-09T02:57:04;2.80;;;2.03;;
7104;SDS011;3594;42.152;24.714;2023-03-09T02:59:30;2.37;;;1.80;;
7104;SDS011;3594;42.152;24.714;2023-03-09T03:01:56;1.97;;;1.80;;
7104;SDS011;3594;42.152;24.714;2023-03-09T03:04:21;1.87;;;1.63;;
7104;SDS011;3594;42.152;24.714;2023-03-09T03:06:47;4.60;;;2.30;;
7104;SDS011;3594;42.152;24.714;2023-03-09T03:09:12;2.83;;;2.10;;
7104;SDS011;3594;42.152;24.714;2023-03-09T03:11:37;3.30;;;2.53;;
7104;SDS011;3594;42.152;24.714;2023-03-09T03:14:03;6.33;;;3.10;;
7104;SDS011;3594;42.152;24.714;2023-03-09T03:16:28;7.17;;;2.87;;
7104;SDS011;3594;42.152;24.714;2023-03-09T03:18:54;4.73;;;2.30;;
7104;SDS011;3594;42.152;24.714;2023-03-09T03:21:19;3.97;;;2.37;;
7104;SDS011;3594;42.152;24.714;2023-03-09T03:23:44;3.87;;;2.60;;
7104;SDS011;3594;42.152;24.714;2023-03-09T03:26:10;2.77;;;2.07;;
7104;SDS011;3594;42.152;24.714;2023-03-09T03:28:36;4.67;;;2.83;;
7104;SDS011;3594;42.152;24.714;2023-03-09T03:31:02;4.30;;;2.70;;
7104;SDS011;3594;42.152;24.714;2023-03-09T03:33:28;4.03;;;2.80;;
7104;SDS011;3594;42.152;24.714;2023-03-09T03:35:55;8.50;;;2.83;;
7104;SDS011;3594;42.152;24.714;2023-03-09T03:38:21;4.60;;;2.70;;
7104;SDS011;3594;42.152;24.714;2023-03-09T03:40:46;3.00;;;2.70;;
7104;SDS011;3594;42.152;24.714;2023-03-09T03:43:12;3.97;;;3.07;;
7104;SDS011;3594;42.152;24.714;2023-03-09T03:45:38;6.33;;;2.80;;
7104;SDS011;3594;42.152;24.714;2023-03-09T03:48:03;7.47;;;2.43;;
7104;SDS011;3594;42.152;24.714;2023-03-09T03:50:29;3.07;;;2.33;;
7104;SDS011;3594;42.152;24.714;2023-03-09T03:52:54;4.40;;;2.63;;
7104;SDS011;3594;42.152;24.714;2023-03-09T03:55:19;4.00;;;2.23;;
7104;SDS011;3594;42.152;24.714;2023-03-09T03:57:45;4.10;;;2.57;;
7104;SDS011;3594;42.152;24.714;2023-03-09T04:00:10;3.70;;;2.20;;
7104;SDS011;3594;42.152;24.714;2023-03-09T04:02:36;4.57;;;2.67;;
7104;SDS011;3594;42.152;24.714;2023-03-09T04:05:02;2.20;;;1.80;;
7104;SDS011;3594;42.152;24.714;2023-03-09T04:07:29;5.67;;;2.80;;
7104;SDS011;3594;42.152;24.714;2023-03-09T04:09:54;4.87;;;2.43;;
7104;SDS011;3594;42.152;24.714;2023-03-09T04:12:20;5.67;;;2.30;;
7104;SDS011;3594;42.152;24.714;2023-03-09T04:14:45;4.03;;;2.50;;
7104;SDS011;3594;42.152;24.714;2023-03-09T04:17:10;2.83;;;2.43;;
7104;SDS011;3594;42.152;24.714;2023-03-09T04:19:36;2.93;;;2.43;;
7104;SDS011;3594;42.152;24.714;2023-03-09T04:22:03;3.87;;;2.73;;
7104;SDS011;3594;42.152;24.714;2023-03-09T04:24:28;2.37;;;1.93;;
7104;SDS011;3594;42.152;24.714;2023-03-09T04:26:54;3.47;;;2.80;;
7104;SDS011;3594;42.152;24.714;2023-03-09T04:29:20;3.67;;;2.33;;
7104;SDS011;3594;42.152;24.714;2023-03-09T04:31:45;2.90;;;2.30;;
7104;SDS011;3594;42.152;24.714;2023-03-09T04:34:11;4.03;;;2.93;;
7104;SDS011;3594;42.152;24.714;2023-03-09T04:36:37;4.33;;;2.80;;
7104;SDS011;3594;42.152;24.714;2023-03-09T04:39:02;3.93;;;2.80;;
7104;SDS011;3594;42.152;24.714;2023-03-09T04:41:30;3.10;;;2.13;;
7104;SDS011;3594;42.152;24.714;2023-03-09T04:43:56;3.03;;;2.03;;
7104;SDS011;3594;42.152;24.714;2023-03-09T04:46:21;4.23;;;2.70;;
7104;SDS011;3594;42.152;24.714;2023-03-09T04:48:47;3.27;;;2.73;;
7104;SDS011;3594;42.152;24.714;2023-03-09T04:51:13;2.97;;;2.30;;
7104;SDS011;3594;42.152;24.714;2023-03-09T04:53:38;2.30;;;2.10;;
7104;SDS011;3594;42.152;24.714;2023-03-09T04:56:05;3.17;;;2.60;;
7104;SDS011;3594;42.152;24.714;2023-03-09T04:58:38;2.53;;;2.27;;
7104;SDS011;3594;42.152;24.714;2023-03-09T05:01:03;3.70;;;2.60;;
7104;SDS011;3594;42.152;24.714;2023-03-09T05:03:29;4.10;;;2.67;;
7104;SDS011;3594;42.152;24.714;2023-03-09T05:05:55;3.43;;;2.50;;
7104;SDS011;3594;42.152;24.714;2023-03-09T05:08:20;3.63;;;2.63;;
7104;SDS011;3594;42.152;24.714;2023-03-09T05:10:46;2.77;;;2.50;;
7104;SDS011;3594;42.152;24.714;2023-03-09T05:13:11;4.30;;;2.33;;
7104;SDS011;3594;42.152;24.714;2023-03-09T05:15:38;2.90;;;2.30;;
7104;SDS011;3594;42.152;24.714;2023-03-09T05:18:04;3.40;;;2.30;;
7104;SDS011;3594;42.152;24.714;2023-03-09T05:20:30;2.67;;;2.37;;
7104;SDS011;3594;42.152;24.714;2023-03-09T05:22:57;3.63;;;2.53;;
7104;SDS011;3594;42.152;24.714;2023-03-09T05:25:22;3.20;;;2.67;;
7104;SDS011;3594;42.152;24.714;2023-03-09T05:27:48;3.63;;;2.50;;
7104;SDS011;3594;42.152;24.714;2023-03-09T05:30:13;2.40;;;2.20;;
7104;SDS011;3594;42.152;24.714;2023-03-09T05:32:39;2.77;;;2.13;;
7104;SDS011;3594;42.152;24.714;2023-03-09T05:35:04;3.83;;;2.37;;
7104;SDS011;3594;42.152;24.714;2023-03-09T05:37:31;5.27;;;3.37;;
7104;SDS011;3594;42.152;24.714;2023-03-09T05:39:57;3.17;;;2.70;;
7104;SDS011;3594;42.152;24.714;2023-03-09T05:42:23;6.00;;;2.83;;
7104;SDS011;3594;42.152;24.714;2023-03-09T05:44:48;10.40;;;5.77;;
7104;SDS011;3594;42.152;24.714;2023-03-09T05:47:14;16.23;;;6.27;;
7104;SDS011;3594;42.152;24.714;2023-03-09T05:49:40;8.73;;;4.77;;
7104;SDS011;3594;42.152;24.714;2023-03-09T05:52:05;11.23;;;4.80;;
7104;SDS011;3594;42.152;24.714;2023-03-09T05:54:31;15.87;;;5.87;;
7104;SDS011;3594;42.152;24.714;2023-03-09T05:56:56;16.63;;;4.90;;
7104;SDS011;3594;42.152;24.714;2023-03-09T05:59:22;12.67;;;5.33;;
7104;SDS011;3594;42.152;24.714;2023-03-09T06:01:47;8.27;;;4.50;;
7104;SDS011;3594;42.152;24.714;2023-03-09T06:04:18;19.40;;;4.37;;
7104;SDS011;3594;42.152;24.714;2023-03-09T06:06:44;8.33;;;4.60;;
7104;SDS011;3594;42.152;24.714;2023-03-09T06:09:09;9.13;;;4.67;;
7104;SDS011;3594;42.152;24.714;2023-03-09T06:11:35;8.60;;;4.80;;
7104;SDS011;3594;42.152;24.714;2023-03-09T06:14:00;8.05;;;3.85;;
7104;SDS011;3594;42.152;24.714;2023-03-09T06:16:26;7.70;;;4.25;;
7104;SDS011;3594;42.152;24.714;2023-03-09T06:18:53;6.03;;;3.67;;
7104;SDS011;3594;42.152;24.714;2023-03-09T06:21:20;6.40;;;4.00;;
7104;SDS011;3594;42.152;24.714;2023-03-09T06:23:45;6.70;;;4.37;;
7104;SDS011;3594;42.152;24.714;2023-03-09T06:26:12;6.88;;;4.38;;
7104;SDS011;3594;42.152;24.714;2023-03-09T06:28:38;8.45;;;3.72;;
7104;SDS011;3594;42.152;24.714;2023-03-09T06:31:11;7.18;;;3.92;;
7104;SDS011;3594;42.152;24.714;2023-03-09T06:33:38;10.75;;;4.38;;
7104;SDS011;3594;42.152;24.714;2023-03-09T06:36:05;7.68;;;4.18;;
7104;SDS011;3594;42.152;24.714;2023-03-09T06:38:31;7.40;;;4.50;;
7104;SDS011;3594;42.152;24.714;2023-03-09T06:40:56;7.50;;;4.28;;
7104;SDS011;3594;42.152;24.714;2023-03-09T06:43:22;9.88;;;4.18;;
7104;SDS011;3594;42.152;24.714;2023-03-09T06:45:48;5.03;;;3.10;;
7104;SDS011;3594;42.152;24.714;2023-03-09T06:48:13;6.38;;;4.15;;
7104;SDS011;3594;42.152;24.714;2023-03-09T06:50:39;4.82;;;2.90;;
7104;SDS011;3594;42.152;24.714;2023-03-09T06:53:04;4.70;;;3.13;;
7104;SDS011;3594;42.152;24.714;2023-03-09T06:55:30;4.95;;;3.08;;
7104;SDS011;3594;42.152;24.714;2023-03-09T06:57:55;5.53;;;3.40;;
7104;SDS011;3594;42.152;24.714;2023-03-09T07:00:21;4.20;;;2.80;;
7104;SDS011;3594;42.152;24.714;2023-03-09T07:02:47;5.05;;;2.70;;
7104;SDS011;3594;42.152;24.714;2023-03-09T07:05:12;5.57;;;3.10;;
7104;SDS011;3594;42.152;24.714;2023-03-09T07:07:38;4.53;;;2.30;;
7104;SDS011;3594;42.152;24.714;2023-03-09T07:10:06;3.80;;;2.70;;
7104;SDS011;3594;42.152;24.714;2023-03-09T07:12:32;4.32;;;2.95;;
7104;SDS011;3594;42.152;24.714;2023-03-09T07:14:57;10.45;;;2.60;;
7104;SDS011;3594;42.152;24.714;2023-03-09T07:17:23;6.47;;;3.35;;
7104;SDS011;3594;42.152;24.714;2023-03-09T07:19:48;4.32;;;2.85;;
7104;SDS011;3594;42.152;24.714;2023-03-09T07:22:13;5.45;;;3.20;;
7104;SDS011;3594;42.152;24.714;2023-03-09T07:24:39;9.60;;;3.97;;
7104;SDS011;3594;42.152;24.714;2023-03-09T07:27:05;7.78;;;4.30;;
7104;SDS011;3594;42.152;24.714;2023-03-09T07:29:32;5.60;;;3.80;;
7104;SDS011;3594;42.152;24.714;2023-03-09T07:31:57;6.47;;;3.78;;
7104;SDS011;3594;42.152;24.714;2023-03-09T07:34:23;8.45;;;3.30;;
7104;SDS011;3594;42.152;24.714;2023-03-09T07:36:49;5.88;;;3.20;;
7104;SDS011;3594;42.152;24.714;2023-03-09T07:39:15;4.88;;;3.35;;
7104;SDS011;3594;42.152;24.714;2023-03-09T07:41:40;5.80;;;3.15;;
7104;SDS011;3594;42.152;24.714;2023-03-09T07:44:07;5.13;;;3.10;;
7104;SDS011;3594;42.152;24.714;2023-03-09T07:46:32;5.28;;;3.05;;
7104;SDS011;3594;42.152;24.714;2023-03-09T07:48:58;4.72;;;2.80;;
7104;SDS011;3594;42.152;24.714;2023-03-09T07:51:23;3.25;;;2.53;;
7104;SDS011;3594;42.152;24.714;2023-03-09T07:53:49;4.47;;;2.78;;
7104;SDS011;3594;42.152;24.714;2023-03-09T07:56:14;4.60;;;3.00;;
7104;SDS011;3594;42.152;24.714;2023-03-09T07:58:40;3.60;;;2.45;;
7104;SDS011;3594;42.152;24.714;2023-03-09T08:01:06;4.75;;;3.00;;
7104;SDS011;3594;42.152;24.714;2023-03-09T08:03:37;3.85;;;2.53;;
7104;SDS011;3594;42.152;24.714;2023-03-09T08:06:02;4.97;;;2.50;;
7104;SDS011;3594;42.152;24.714;2023-03-09T08:08:30;4.05;;;2.80;;
7104;SDS011;3594;42.152;24.714;2023-03-09T08:10:57;4.30;;;2.47;;
7104;SDS011;3594;42.152;24.714;2023-03-09T08:13:22;4.10;;;2.80;;
7104;SDS011;3594;42.152;24.714;2023-03-09T08:15:48;4.20;;;2.60;;
7104;SDS011;3594;42.152;24.714;2023-03-09T08:18:14;2.92;;;2.20;;
7104;SDS011;3594;42.152;24.714;2023-03-09T08:20:40;2.85;;;2.38;;
7104;SDS011;3594;42.152;24.714;2023-03-09T08:23:06;4.00;;;2.45;;
7104;SDS011;3594;42.152;24.714;2023-03-09T08:25:32;4.10;;;2.85;;
7104;SDS011;3594;42.152;24.714;2023-03-09T08:27:58;3.80;;;2.60;;
7104;SDS011;3594;42.152;24.714;2023-03-09T08:30:24;5.47;;;2.45;;
7104;SDS011;3594;42.152;24.714;2023-03-09T08:32:51;2.65;;;2.20;;
7104;SDS011;3594;42.152;24.714;2023-03-09T08:35:18;3.28;;;2.40;;
7104;SDS011;3594;42.152;24.714;2023-03-09T08:37:45;3.28;;;2.42;;
7104;SDS011;3594;42.152;24.714;2023-03-09T08:40:11;5.10;;;2.28;;
7104;SDS011;3594;42.152;24.714;2023-03-09T08:42:37;3.90;;;2.22;;
7104;SDS011;3594;42.152;24.714;2023-03-09T08:45:03;6.40;;;2.20;;
7104;SDS011;3594;42.152;24.714;2023-03-09T08:47:30;4.28;;;2.20;;
7104;SDS011;3594;42.152;24.714;2023-03-09T08:49:55;3.03;;;2.22;;
7104;SDS011;3594;42.152;24.714;2023-03-09T08:52:21;6.20;;;2.50;;
7104;SDS011;3594;42.152;24.714;2023-03-09T08:54:46;3.08;;;2.13;;
7104;SDS011;3594;42.152;24.714;2023-03-09T08:57:12;4.75;;;2.70;;
7104;SDS011;3594;42.152;24.714;2023-03-09T08:59:37;2.78;;;2.13;;
7104;SDS011;3594;42.152;24.714;2023-03-09T09:02:03;3.72;;;2.55;;
7104;SDS011;3594;42.152;24.714;2023-03-09T09:04:29;4.72;;;2.58;;
7104;SDS011;3594;42.152;24.714;2023-03-09T09:06:54;3.50;;;2.38;;
7104;SDS011;3594;42.152;24.714;2023-03-09T09:09:20;5.20;;;2.38;;
7104;SDS011;3594;42.152;24.714;2023-03-09T09:11:46;4.50;;;2.22;;
7104;SDS011;3594;42.152;24.714;2023-03-09T09:14:11;3.67;;;2.05;;
7104;SDS011;3594;42.152;24.714;2023-03-09T09:16:37;5.32;;;2.13;;
7104;SDS011;3594;42.152;24.714;2023-03-09T09:19:03;3.65;;;2.00;;
7104;SDS011;3594;42.152;24.714;2023-03-09T09:21:28;3.20;;;2.15;;
7104;SDS011;3594;42.152;24.714;2023-03-09T09:23:54;2.85;;;2.35;;
7104;SDS011;3594;42.152;24.714;2023-03-09T09:26:19;3.42;;;2.28;;
7104;SDS011;3594;42.152;24.714;2023-03-09T09:28:45;3.35;;;2.20;;
7104;SDS011;3594;42.152;24.714;2023-03-09T09:31:12;2.83;;;2.25;;
7104;SDS011;3594;42.152;24.714;2023-03-09T09:33:42;4.65;;;2.30;;
7104;SDS011;3594;42.152;24.714;2023-03-09T09:36:09;3.05;;;2.35;;
7104;SDS011;3594;42.152;24.714;2023-03-09T09:38:38;3.33;;;2.30;;
7104;SDS011;3594;42.152;24.714;2023-03-09T09:41:06;4.75;;;2.22;;
7104;SDS011;3594;42.152;24.714;2023-03-09T09:43:37;3.00;;;2.00;;
7104;SDS011;3594;42.152;24.714;2023-03-09T09:46:04;3.35;;;2.05;;
7104;SDS011;3594;42.152;24.714;2023-03-09T09:48:34;4.15;;;2.17;;
7104;SDS011;3594;42.152;24.714;2023-03-09T09:51:16;3.42;;;2.20;;
7104;SDS011;3594;42.152;24.714;2023-03-09T09:56:55;2.83;;;2.10;;
7104;SDS011;3594;42.152;24.714;2023-03-09T10:04:40;3.65;;;1.98;;
7104;SDS011;3594;42.152;24.714;2023-03-09T10:07:15;3.92;;;2.13;;
7104;SDS011;3594;42.152;24.714;2023-03-09T10:09:50;3.35;;;2.20;;
7104;SDS011;3594;42.152;24.714;2023-03-09T10:12:19;3.67;;;2.22;;
7104;SDS011;3594;42.152;24.714;2023-03-09T10:15:01;5.75;;;2.20;;
7104;SDS011;3594;42.152;24.714;2023-03-09T10:20:10;4.35;;;2.22;;
7104;SDS011;3594;42.152;24.714;2023-03-09T10:22:39;2.60;;;2.25;;
7104;SDS011;3594;42.152;24.714;2023-03-09T10:25:12;5.88;;;2.17;;
7104;SDS011;3594;42.152;24.714;2023-03-09T10:27:41;2.95;;;2.10;;
7104;SDS011;3594;42.152;24.714;2023-03-09T10:33:16;2.92;;;2.35;;
7104;SDS011;3594;42.152;24.714;2023-03-09T10:38:34;3.85;;;2.15;;
7104;SDS011;3594;42.152;24.714;2023-03-09T10:41:03;1.98;;;1.70;;
7104;SDS011;3594;42.152;24.714;2023-03-09T10:43:32;3.70;;;1.98;;
7104;SDS011;3594;42.152;24.714;2023-03-09T10:48:48;3.00;;;2.20;;
7104;SDS011;3594;42.152;24.714;2023-03-09T10:51:36;2.58;;;1.90;;
7104;SDS011;3594;42.152;24.714;2023-03-09T10:56:44;2.75;;;1.73;;
7104;SDS011;3594;42.152;24.714;2023-03-09T10:59:12;2.80;;;1.73;;
7104;SDS011;3594;42.152;24.714;2023-03-09T11:01:42;2.08;;;1.73;;
7104;SDS011;3594;42.152;24.714;2023-03-09T11:06:48;2.45;;;1.80;;
7104;SDS011;3594;42.152;24.714;2023-03-09T11:09:34;4.13;;;1.90;;
7104;SDS011;3594;42.152;24.714;2023-03-09T11:12:22;2.25;;;1.60;;
7104;SDS011;3594;42.152;24.714;2023-03-09T11:14:51;2.95;;;1.75;;
7104;SDS011;3594;42.152;24.714;2023-03-09T11:17:27;3.85;;;2.00;;
7104;SDS011;3594;42.152;24.714;2023-03-09T11:23:00;3.00;;;1.70;;
7104;SDS011;3594;42.152;24.714;2023-03-09T11:26:01;3.40;;;1.92;;
7104;SDS011;3594;42.152;24.714;2023-03-09T11:31:25;4.78;;;2.50;;
7104;SDS011;3594;42.152;24.714;2023-03-09T11:33:58;2.20;;;1.70;;
7104;SDS011;3594;42.152;24.714;2023-03-09T11:39:21;6.07;;;2.22;;
7104;SDS011;3594;42.152;24.714;2023-03-09T11:41:52;3.03;;;2.20;;
7104;SDS011;3594;42.152;24.714;2023-03-09T11:44:22;8.18;;;2.22;;
7104;SDS011;3594;42.152;24.714;2023-03-09T11:46:49;4.00;;;2.13;;
7104;SDS011;3594;42.152;24.714;2023-03-09T11:49:18;5.07;;;2.30;;
7104;SDS011;3594;42.152;24.714;2023-03-09T11:51:49;3.33;;;2.20;;
7104;SDS011;3594;42.152;24.714;2023-03-09T11:56:54;4.28;;;2.05;;
7104;SDS011;3594;42.152;24.714;2023-03-09T11:59:32;4.22;;;2.20;;
7104;SDS011;3594;42.152;24.714;2023-03-09T12:04:52;3.63;;;2.35;;
7104;SDS011;3594;42.152;24.714;2023-03-09T12:07:21;3.33;;;2.25;;
7104;SDS011;3594;42.152;24.714;2023-03-09T12:10:12;8.13;;;3.17;;
7104;SDS011;3594;42.152;24.714;2023-03-09T12:13:04;8.48;;;2.20;;
7104;SDS011;3594;42.152;24.714;2023-03-09T12:18:07;4.85;;;2.30;;
7104;SDS011;3594;42.152;24.714;2023-03-09T12:20:47;4.10;;;2.30;;
7104;SDS011;3594;42.152;24.714;2023-03-09T12:26:00;2.30;;;2.05;;
7104;SDS011;3594;42.152;24.714;2023-03-09T12:28:28;2.22;;;2.00;;
7104;SDS011;3594;42.152;24.714;2023-03-09T12:30:54;3.28;;;2.13;;
7104;SDS011;3594;42.152;24.714;2023-03-09T12:36:21;2.53;;;1.83;;
7104;SDS011;3594;42.152;24.714;2023-03-09T12:47:22;4.68;;;2.35;;
7104;SDS011;3594;42.152;24.714;2023-03-09T12:49:58;5.18;;;2.28;;
7104;SDS011;3594;42.152;24.714;2023-03-09T12:55:12;3.42;;;2.20;;
7104;SDS011;3594;42.152;24.714;2023-03-09T12:57:38;4.20;;;2.58;;
7104;SDS011;3594;42.152;24.714;2023-03-09T13:00:15;5.32;;;2.85;;
7104;SDS011;3594;42.152;24.714;2023-03-09T13:05:45;4.18;;;2.55;;
7104;SDS011;3594;42.152;24.714;2023-03-09T13:08:20;2.90;;;1.98;;
7104;SDS011;3594;42.152;24.714;2023-03-09T13:10:46;3.05;;;2.22;;
7104;SDS011;3594;42.152;24.714;2023-03-09T13:29:59;3.40;;;2.08;;
7104;SDS011;3594;42.152;24.714;2023-03-09T13:38:16;3.08;;;1.92;;
7104;SDS011;3594;42.152;24.714;2023-03-09T13:40:50;3.60;;;2.20;;
7104;SDS011;3594;42.152;24.714;2023-03-09T13:43:29;2.90;;;1.73;;
7104;SDS011;3594;42.152;24.714;2023-03-09T13:46:06;2.95;;;1.90;;
7104;SDS011;3594;42.152;24.714;2023-03-09T13:48:44;3.00;;;1.90;;
7104;SDS011;3594;42.152;24.714;2023-03-09T13:53:46;2.40;;;1.80;;
7104;SDS011;3594;42.152;24.714;2023-03-09T13:56:12;3.35;;;2.03;;
7104;SDS011;3594;42.152;24.714;2023-03-09T13:58:40;3.35;;;2.30;;
7104;SDS011;3594;42.152;24.714;2023-03-09T14:01:17;3.08;;;2.08;;
7104;SDS011;3594;42.152;24.714;2023-03-09T14:03:53;3.58;;;2.00;;
7104;SDS011;3594;42.152;24.714;2023-03-09T14:06:32;4.80;;;2.25;;
7104;SDS011;3594;42.152;24.714;2023-03-09T14:09:42;4.28;;;1.85;;
7104;SDS011;3594;42.152;24.714;2023-03-09T14:11:57;2.60;;;1.90;;
7104;SDS011;3594;42.152;24.714;2023-03-09T14:14:23;2.28;;;1.63;;
7104;SDS011;3594;42.152;24.714;2023-03-09T14:16:50;3.38;;;1.70;;
7104;SDS011;3594;42.152;24.714;2023-03-09T14:19:26;2.28;;;1.70;;
7104;SDS011;3594;42.152;24.714;2023-03-09T14:21:56;2.53;;;1.73;;
7104;SDS011;3594;42.152;24.714;2023-03-09T14:24:30;2.58;;;1.60;;
7104;SDS011;3594;42.152;24.714;2023-03-09T14:29:58;3.00;;;1.77;;
7104;SDS011;3594;42.152;24.714;2023-03-09T14:32:55;1.77;;;1.60;;
7104;SDS011;3594;42.152;24.714;2023-03-09T14:35:24;2.47;;;1.75;;
7104;SDS011;3594;42.152;24.714;2023-03-09T14:37:54;1.70;;;1.40;;
7104;SDS011;3594;42.152;24.714;2023-03-09T14:42:51;2.67;;;1.65;;
7104;SDS011;3594;42.152;24.714;2023-03-09T14:47:45;2.40;;;1.50;;
7104;SDS011;3594;42.152;24.714;2023-03-09T14:50:13;1.70;;;1.30;;
7104;SDS011;3594;42.152;24.714;2023-03-09T14:52:41;2.20;;;1.30;;
7104;SDS011;3594;42.152;24.714;2023-03-09T14:55:17;1.88;;;1.45;;
7104;SDS011;3594;42.152;24.714;2023-03-09T14:57:45;1.10;;;1.00;;
7104;SDS011;3594;42.152;24.714;2023-03-09T15:00:28;3.45;;;1.50;;
7104;SDS011;3594;42.152;24.714;2023-03-09T15:02:55;3.05;;;1.40;;
7104;SDS011;3594;42.152;24.714;2023-03-09T15:05:22;1.85;;;1.38;;
7104;SDS011;3594;42.152;24.714;2023-03-09T15:07:49;3.92;;;1.33;;
7104;SDS011;3594;42.152;24.714;2023-03-09T15:10:15;1.40;;;1.30;;
7104;SDS011;3594;42.152;24.714;2023-03-09T15:12:41;1.27;;;1.05;;
7104;SDS011;3594;42.152;24.714;2023-03-09T15:15:19;1.95;;;1.67;;
7104;SDS011;3594;42.152;24.714;2023-03-09T15:17:49;4.13;;;1.55;;
7104;SDS011;3594;42.152;24.714;2023-03-09T15:20:19;1.48;;;1.23;;
7104;SDS011;3594;42.152;24.714;2023-03-09T15:22:46;2.05;;;1.55;;
7104;SDS011;3594;42.152;24.714;2023-03-09T15:25:12;2.45;;;1.42;;
7104;SDS011;3594;42.152;24.714;2023-03-09T15:27:40;1.48;;;1.30;;
7104;SDS011;3594;42.152;24.714;2023-03-09T15:30:08;2.15;;;1.60;;
7104;SDS011;3594;42.152;24.714;2023-03-09T15:32:38;2.00;;;1.58;;
7104;SDS011;3594;42.152;24.714;2023-03-09T15:35:04;1.60;;;1.30;;
7104;SDS011;3594;42.152;24.714;2023-03-09T15:37:30;6.15;;;1.85;;
7104;SDS011;3594;42.152;24.714;2023-03-09T15:39:56;1.80;;;1.45;;
7104;SDS011;3594;42.152;24.714;2023-03-09T15:42:21;2.58;;;1.42;;
7104;SDS011;3594;42.152;24.714;2023-03-09T15:44:47;3.83;;;1.92;;
7104;SDS011;3594;42.152;24.714;2023-03-09T15:47:12;2.40;;;1.55;;
7104;SDS011;3594;42.152;24.714;2023-03-09T15:49:40;1.58;;;1.40;;
7104;SDS011;3594;42.152;24.714;2023-03-09T15:52:06;6.30;;;1.67;;
7104;SDS011;3594;42.152;24.714;2023-03-09T15:54:32;1.85;;;1.52;;
7104;SDS011;3594;42.152;24.714;2023-03-09T15:56:57;2.53;;;1.58;;
7104;SDS011;3594;42.152;24.714;2023-03-09T15:59:23;6.88;;;1.60;;
7104;SDS011;3594;42.152;24.714;2023-03-09T16:01:48;1.50;;;1.35;;
7104;SDS011;3594;42.152;24.714;2023-03-09T16:04:16;2.53;;;1.70;;
7104;SDS011;3594;42.152;24.714;2023-03-09T16:06:42;2.47;;;1.90;;
7104;SDS011;3594;42.152;24.714;2023-03-09T16:09:08;5.07;;;2.00;;
7104;SDS011;3594;42.152;24.714;2023-03-09T16:11:33;2.47;;;1.67;;
7104;SDS011;3594;42.152;24.714;2023-03-09T16:13:59;3.33;;;1.63;;
7104;SDS011;3594;42.152;24.714;2023-03-09T16:16:24;2.50;;;1.65;;
7104;SDS011;3594;42.152;24.714;2023-03-09T16:18:50;2.47;;;1.65;;
7104;SDS011;3594;42.152;24.714;2023-03-09T16:21:15;4.18;;;2.08;;
7104;SDS011;3594;42.152;24.714;2023-03-09T16:23:40;2.47;;;1.95;;
7104;SDS011;3594;42.152;24.714;2023-03-09T16:26:06;4.28;;;2.03;;
7104;SDS011;3594;42.152;24.714;2023-03-09T16:28:31;4.38;;;2.05;;
7104;SDS011;3594;42.152;24.714;2023-03-09T16:30:57;4.03;;;2.00;;
7104;SDS011;3594;42.152;24.714;2023-03-09T16:33:22;4.68;;;2.05;;
7104;SDS011;3594;42.152;24.714;2023-03-09T16:36:01;3.88;;;2.05;;
7104;SDS011;3594;42.152;24.714;2023-03-09T16:38:27;3.13;;;2.00;;
7104;SDS011;3594;42.152;24.714;2023-03-09T16:40:52;3.72;;;2.30;;
7104;SDS011;3594;42.152;24.714;2023-03-09T16:43:18;3.28;;;1.85;;
7104;SDS011;3594;42.152;24.714;2023-03-09T16:45:53;3.67;;;2.20;;